createdAt,value
2023-05-21T00:01:07.060Z,15.37
2023-05-21T00:03:36.073Z,15.40
2023-05-21T00:06:04.478Z,15.40
2023-05-21T00:08:34.125Z,13.97
2023-05-21T00:11:01.709Z,15.60
2023-05-21T00:13:29.313Z,15.73
2023-05-21T00:15:58.458Z,14.73
2023-05-21T00:18:26.406Z,15.37
2023-05-21T00:20:54.407Z,13.90
2023-05-21T00:23:22.024Z,15.27
2023-05-21T00:25:50.463Z,15.17
2023-05-21T00:28:18.191Z,14.80
2023-05-21T00:30:47.240Z,13.10
2023-05-21T00:33:16.247Z,14.23
2023-05-21T00:35:43.859Z,13.57
2023-05-21T00:38:11.531Z,15.57
2023-05-21T00:40:41.165Z,14.50
2023-05-21T00:43:10.682Z,15.37
2023-05-21T00:45:38.649Z,14.70
2023-05-21T00:48:08.005Z,14.00
2023-05-21T00:50:39.593Z,14.03
2023-05-21T00:53:12.717Z,14.07
2023-05-21T00:55:40.828Z,15.40
2023-05-21T00:58:09.108Z,14.77
2023-05-21T01:00:37.380Z,14.20
2023-05-21T01:03:06.137Z,14.70
2023-05-21T01:05:34.043Z,13.30
2023-05-21T01:08:03.867Z,13.33
2023-05-21T01:10:31.576Z,14.07
2023-05-21T01:12:59.654Z,13.40
2023-05-21T01:15:27.602Z,13.83
2023-05-21T01:17:55.852Z,15.50
2023-05-21T01:20:24.503Z,14.80
2023-05-21T01:22:55.063Z,14.53
2023-05-21T01:25:22.890Z,14.03
2023-05-21T01:27:50.710Z,13.70
2023-05-21T01:30:19.576Z,13.67
2023-05-21T01:32:50.594Z,13.77
2023-05-21T01:35:21.976Z,16.67
2023-05-21T01:37:56.383Z,12.90
2023-05-21T01:40:27.720Z,13.60
2023-05-21T01:42:55.342Z,13.03
2023-05-21T01:45:23.963Z,16.43
2023-05-21T01:47:53.110Z,13.23
2023-05-21T01:50:20.792Z,13.33
2023-05-21T01:52:51.766Z,13.83
2023-05-21T01:55:24.490Z,13.00
2023-05-21T01:57:53.639Z,12.60
2023-05-21T02:00:22.330Z,13.87
2023-05-21T02:02:50.290Z,13.50
2023-05-21T02:05:18.279Z,13.23
2023-05-21T02:07:46.421Z,13.17
2023-05-21T02:10:14.485Z,13.77
2023-05-21T02:12:44.082Z,16.77
2023-05-21T02:15:11.750Z,13.07
2023-05-21T02:17:39.490Z,14.73
2023-05-21T02:20:11.519Z,13.30
2023-05-21T02:22:39.870Z,13.63
2023-05-21T02:25:08.997Z,13.00
2023-05-21T02:27:37.608Z,11.93
2023-05-21T02:30:08.990Z,13.33
2023-05-21T02:32:36.907Z,22.20
2023-05-21T02:35:05.600Z,12.50
2023-05-21T02:37:34.196Z,13.30
2023-05-21T02:40:02.207Z,12.03
2023-05-21T02:42:29.823Z,15.20
2023-05-21T02:44:57.461Z,12.83
2023-05-21T02:47:27.038Z,12.70
2023-05-21T02:49:55.203Z,13.33
2023-05-21T02:52:23.898Z,14.00
2023-05-21T02:54:53.266Z,13.97
2023-05-21T02:57:20.938Z,12.77
2023-05-21T02:59:48.495Z,12.90
2023-05-21T03:02:16.350Z,12.20
2023-05-21T03:04:46.927Z,12.93
2023-05-21T03:07:15.103Z,12.67
2023-05-21T03:09:42.926Z,12.60
2023-05-21T03:12:11.285Z,13.17
2023-05-21T03:14:39.232Z,12.43
2023-05-21T03:17:07.730Z,16.77
2023-05-21T03:19:36.297Z,13.13
2023-05-21T03:22:05.721Z,12.47
2023-05-21T03:24:33.634Z,12.63
2023-05-21T03:27:02.005Z,15.23
2023-05-21T03:29:29.885Z,15.83
2023-05-21T03:31:58.093Z,12.97
2023-05-21T03:34:25.806Z,12.43
2023-05-21T03:36:53.419Z,12.87
2023-05-21T03:39:22.369Z,12.87
2023-05-21T03:41:49.960Z,14.47
2023-05-21T03:44:17.607Z,12.77
2023-05-21T03:46:46.118Z,12.50
2023-05-21T03:49:15.020Z,12.60
2023-05-21T03:51:42.612Z,12.87
2023-05-21T03:54:10.399Z,13.07
2023-05-21T03:56:39.329Z,12.73
2023-05-21T03:59:06.909Z,12.53
2023-05-21T04:01:34.844Z,13.63
2023-05-21T04:04:02.609Z,13.43
2023-05-21T04:06:30.309Z,12.93
2023-05-21T04:08:57.920Z,12.67
2023-05-21T04:11:26.100Z,14.20
2023-05-21T04:13:55.041Z,14.50
2023-05-21T04:16:24.558Z,11.57
2023-05-21T04:18:52.373Z,12.33
2023-05-21T04:21:20.044Z,14.37
2023-05-21T04:23:47.672Z,12.33
2023-05-21T04:26:16.243Z,12.30
2023-05-21T04:28:45.748Z,11.70
2023-05-21T04:31:15.126Z,11.67
2023-05-21T04:33:45.860Z,11.83
2023-05-21T04:36:13.579Z,11.90
2023-05-21T04:38:42.364Z,11.60
2023-05-21T04:41:10.866Z,14.77
2023-05-21T04:43:38.626Z,13.53
2023-05-21T04:46:06.434Z,13.33
2023-05-21T04:48:35.425Z,13.73
2023-05-21T04:51:05.753Z,13.20
2023-05-21T04:53:33.891Z,13.27
2023-05-21T04:56:01.596Z,16.90
2023-05-21T04:58:29.218Z,12.67
2023-05-21T05:00:57.826Z,13.13
2023-05-21T05:03:25.608Z,12.20
2023-05-21T05:05:54.700Z,14.87
2023-05-21T05:08:22.330Z,12.50
2023-05-21T05:10:49.928Z,11.40
2023-05-21T05:13:17.603Z,12.20
2023-05-21T05:15:46.108Z,15.53
2023-05-21T05:18:15.111Z,11.07
2023-05-21T05:20:42.783Z,12.87
2023-05-21T05:23:11.756Z,11.90
2023-05-21T05:25:39.614Z,12.10
2023-05-21T05:28:07.372Z,12.10
2023-05-21T05:30:36.095Z,13.90
2023-05-21T05:33:03.809Z,12.30
2023-05-21T05:35:31.390Z,11.63
2023-05-21T05:37:59.263Z,12.50
2023-05-21T05:40:28.257Z,11.53
2023-05-21T05:42:55.958Z,12.80
2023-05-21T05:45:23.660Z,16.07
2023-05-21T05:47:51.288Z,12.30
2023-05-21T05:50:21.873Z,11.70
2023-05-21T05:52:49.514Z,11.07
2023-05-21T05:55:17.634Z,13.13
2023-05-21T05:57:46.636Z,12.57
2023-05-21T06:00:15.288Z,10.50
2023-05-21T06:02:43.148Z,11.40
2023-05-21T06:05:11.464Z,11.47
2023-05-21T06:07:39.679Z,10.10
2023-05-21T06:10:07.915Z,11.87
2023-05-21T06:12:35.908Z,12.13
2023-05-21T06:15:05.732Z,11.27
2023-05-21T06:17:33.380Z,10.90
2023-05-21T06:20:00.975Z,10.43
2023-05-21T06:22:28.614Z,11.93
2023-05-21T06:24:56.201Z,10.77
2023-05-21T06:27:23.777Z,10.43
2023-05-21T06:29:51.427Z,11.07
2023-05-21T06:32:21.364Z,10.73
2023-05-21T06:34:49.039Z,11.13
2023-05-21T06:37:20.482Z,10.67
2023-05-21T06:39:48.080Z,16.57
2023-05-21T06:42:15.749Z,13.47
2023-05-21T06:44:43.393Z,11.03
2023-05-21T06:47:11.018Z,12.23
2023-05-21T06:49:39.923Z,13.77
2023-05-21T06:52:07.980Z,10.90
2023-05-21T06:54:35.683Z,10.60
2023-05-21T06:57:03.315Z,10.73
2023-05-21T06:59:31.527Z,11.27
2023-05-21T07:01:59.210Z,11.50
2023-05-21T07:04:26.816Z,10.47
2023-05-21T07:06:55.770Z,10.90
2023-05-21T07:09:23.420Z,10.60
2023-05-21T07:11:51.630Z,12.87
2023-05-21T07:14:19.224Z,10.93
2023-05-21T07:16:46.874Z,13.13
2023-05-21T07:19:15.955Z,11.30
2023-05-21T07:21:43.608Z,11.70
2023-05-21T07:24:12.668Z,11.30
2023-05-21T07:26:40.415Z,11.57
2023-05-21T07:29:08.095Z,11.37
2023-05-21T07:31:35.749Z,11.13
2023-05-21T07:34:03.445Z,11.50
2023-05-21T07:36:31.078Z,13.10
2023-05-21T07:38:58.806Z,12.50
2023-05-21T07:41:27.728Z,10.43
2023-05-21T07:43:55.276Z,9.87
2023-05-21T07:46:23.300Z,11.33
2023-05-21T07:48:51.011Z,15.33
2023-05-21T07:51:18.684Z,11.47
2023-05-21T07:53:46.308Z,10.93
2023-05-21T07:56:13.965Z,9.97
2023-05-21T07:58:45.827Z,10.20
2023-05-21T08:01:13.574Z,10.77
2023-05-21T08:03:41.438Z,10.07
2023-05-21T08:06:09.180Z,10.27
2023-05-21T08:08:36.776Z,12.07
2023-05-21T08:11:04.437Z,9.93
2023-05-21T08:13:32.020Z,10.63
2023-05-21T08:16:01.600Z,9.40
2023-05-21T08:18:29.203Z,12.20
2023-05-21T08:20:56.896Z,9.73
2023-05-21T08:23:24.516Z,10.40
2023-05-21T08:25:53.459Z,9.77
2023-05-21T08:28:23.192Z,9.47
2023-05-21T08:30:50.844Z,9.83
2023-05-21T08:33:21.110Z,9.43
2023-05-21T08:35:49.153Z,9.60
2023-05-21T08:38:17.684Z,9.27
2023-05-21T08:40:47.657Z,10.80
2023-05-21T08:43:16.466Z,9.67
2023-05-21T08:45:46.719Z,9.80
2023-05-21T08:48:18.799Z,10.03
2023-05-21T08:50:46.469Z,9.97
2023-05-21T08:53:23.931Z,9.73
2023-05-21T08:55:57.172Z,10.13
2023-05-21T08:58:25.187Z,9.57
2023-05-21T09:00:52.826Z,12.90
2023-05-21T09:03:22.429Z,10.10
2023-05-21T09:05:51.169Z,14.10
2023-05-21T09:08:20.580Z,12.30
2023-05-21T09:10:51.155Z,11.17
2023-05-21T09:13:19.426Z,10.27
2023-05-21T09:15:47.733Z,12.67
2023-05-21T09:18:15.680Z,9.43
2023-05-21T09:20:45.337Z,10.57
2023-05-21T09:23:16.929Z,10.73
2023-05-21T09:25:46.823Z,10.43
2023-05-21T09:28:18.692Z,10.27
2023-05-21T09:30:46.769Z,10.33
2023-05-21T09:33:25.452Z,11.70
2023-05-21T09:35:54.523Z,10.20
2023-05-21T09:38:23.630Z,10.73
2023-05-21T09:40:51.610Z,12.27
2023-05-21T09:43:19.469Z,10.27
2023-05-21T09:45:53.874Z,11.83
2023-05-21T09:48:35.127Z,10.30
2023-05-21T09:51:15.004Z,9.37
2023-05-21T09:53:47.852Z,10.60
2023-05-21T09:56:15.520Z,10.63
2023-05-21T09:58:43.221Z,11.37
2023-05-21T10:01:11.825Z,11.07
2023-05-21T10:03:40.843Z,10.30
2023-05-21T10:06:09.957Z,10.97
2023-05-21T10:08:42.943Z,11.23
2023-05-21T10:11:11.120Z,11.10
2023-05-21T10:13:41.315Z,10.60
2023-05-21T10:16:09.377Z,9.70
2023-05-21T10:18:38.366Z,10.20
2023-05-21T10:21:07.166Z,9.33
2023-05-21T10:23:37.515Z,12.83
2023-05-21T10:26:06.607Z,10.27
2023-05-21T10:28:34.540Z,8.20
2023-05-21T10:31:02.405Z,9.13
2023-05-21T10:33:30.514Z,9.10
2023-05-21T10:35:59.567Z,12.07
2023-05-21T10:38:28.802Z,8.50
2023-05-21T10:40:56.895Z,8.20
2023-05-21T10:43:50.052Z,8.57
2023-05-21T10:46:40.798Z,7.93
2023-05-21T10:49:28.181Z,8.67
2023-05-21T10:52:06.953Z,9.97
2023-05-21T10:55:03.156Z,9.20
2023-05-21T10:57:45.949Z,10.53
2023-05-21T11:00:17.175Z,8.60
2023-05-21T11:02:45.678Z,12.33
2023-05-21T11:05:13.520Z,7.93
2023-05-21T11:07:56.176Z,9.17
2023-05-21T11:10:37.698Z,9.23
2023-05-21T11:13:09.554Z,8.90
2023-05-21T11:16:10.807Z,8.47
2023-05-21T11:19:00.712Z,8.53
2023-05-21T11:21:31.317Z,8.37
2023-05-21T11:24:03.727Z,9.30
2023-05-21T11:26:52.521Z,10.20
2023-05-21T11:29:21.018Z,9.30
2023-05-21T11:32:01.352Z,9.47
2023-05-21T11:34:39.500Z,8.50
2023-05-21T11:37:28.963Z,8.73
2023-05-21T11:39:57.533Z,9.60
2023-05-21T11:42:33.043Z,9.18
2023-05-21T11:45:01.948Z,9.05
2023-05-21T11:47:32.187Z,12.88
2023-05-21T11:50:01.097Z,8.65
2023-05-21T11:52:30.051Z,9.32
2023-05-21T11:54:59.620Z,11.55
2023-05-21T11:57:30.729Z,9.35
2023-05-21T11:59:59.747Z,9.63
2023-05-21T12:02:28.515Z,10.27
2023-05-21T12:05:00.019Z,10.10
2023-05-21T12:07:29.607Z,9.65
2023-05-21T12:09:57.438Z,9.80
2023-05-21T12:12:27.202Z,9.95
2023-05-21T12:14:56.959Z,11.90
2023-05-21T12:17:25.616Z,9.70
2023-05-21T12:19:55.281Z,9.90
2023-05-21T12:22:25.038Z,10.13
2023-05-21T12:24:53.840Z,10.00
2023-05-21T12:27:22.782Z,9.52
2023-05-21T12:29:51.603Z,11.43
2023-05-21T12:32:19.241Z,9.68
2023-05-21T12:34:48.645Z,9.18
2023-05-21T12:37:17.314Z,10.00
2023-05-21T12:39:47.403Z,8.73
2023-05-21T12:42:15.401Z,9.77
2023-05-21T12:44:45.445Z,9.85
2023-05-21T12:47:13.473Z,9.93
2023-05-21T12:49:42.121Z,11.75
2023-05-21T12:52:11.334Z,9.68
2023-05-21T12:54:39.908Z,9.80
2023-05-21T12:57:15.250Z,9.20
2023-05-21T12:59:50.698Z,9.15
2023-05-21T13:02:21.811Z,9.65
2023-05-21T13:04:49.893Z,8.02
2023-05-21T13:07:19.346Z,12.55
2023-05-21T13:09:47.000Z,9.00
2023-05-21T13:12:15.977Z,9.13
2023-05-21T13:14:43.612Z,8.65
2023-05-21T13:17:12.107Z,8.50
2023-05-21T13:19:39.694Z,9.02
2023-05-21T13:22:07.655Z,8.02
2023-05-21T13:24:35.343Z,8.07
2023-05-21T13:27:03.043Z,8.50
2023-05-21T13:29:32.238Z,8.15
2023-05-21T13:31:59.955Z,10.02
2023-05-21T13:34:27.561Z,8.05
2023-05-21T13:36:55.145Z,10.35
2023-05-21T13:39:26.762Z,8.63
2023-05-21T13:41:55.068Z,7.88
2023-05-21T13:44:22.790Z,8.43
2023-05-21T13:46:51.908Z,8.38
2023-05-21T13:49:19.612Z,7.63
2023-05-21T13:51:47.422Z,7.82
2023-05-21T13:54:15.745Z,8.15
2023-05-21T13:56:43.456Z,8.38
2023-05-21T13:59:11.086Z,7.70
2023-05-21T14:01:38.786Z,7.43
2023-05-21T14:04:08.329Z,7.88
2023-05-21T14:06:36.089Z,7.65
2023-05-21T14:09:08.568Z,7.53
2023-05-21T14:11:36.593Z,7.80
2023-05-21T14:14:07.151Z,7.30
2023-05-21T14:16:34.874Z,8.20
2023-05-21T14:19:03.542Z,7.68
2023-05-21T14:21:32.819Z,7.72
2023-05-21T14:24:00.561Z,7.53
2023-05-21T14:26:28.494Z,8.30
2023-05-21T14:28:57.012Z,9.73
2023-05-21T14:31:25.397Z,8.60
2023-05-21T14:33:53.024Z,7.60
2023-05-21T14:36:20.735Z,8.48
2023-05-21T14:38:49.828Z,7.57
2023-05-21T14:41:17.550Z,10.65
2023-05-21T14:43:45.238Z,8.13
2023-05-21T14:46:13.180Z,7.20
2023-05-21T14:48:41.107Z,7.53
2023-05-21T14:51:11.981Z,7.80
2023-05-21T14:53:39.746Z,13.05
2023-05-21T14:56:09.317Z,6.88
2023-05-21T14:58:36.930Z,7.07
2023-05-21T15:01:05.059Z,7.15
2023-05-21T15:03:32.951Z,6.85
2023-05-21T15:06:00.724Z,6.75
2023-05-21T15:08:28.479Z,7.78
2023-05-21T15:10:56.130Z,8.07
2023-05-21T15:13:25.145Z,7.32
2023-05-21T15:15:52.900Z,6.53
2023-05-21T15:18:20.687Z,7.63
2023-05-21T15:20:48.602Z,7.10
2023-05-21T15:23:17.641Z,6.43
2023-05-21T15:25:45.912Z,6.90
2023-05-21T15:28:13.695Z,6.80
2023-05-21T15:30:42.967Z,8.70
2023-05-21T15:33:11.076Z,7.22
2023-05-21T15:35:39.168Z,6.70
2023-05-21T15:38:07.323Z,6.57
2023-05-21T15:40:35.024Z,7.72
2023-05-21T15:43:02.724Z,6.90
2023-05-21T15:45:30.407Z,9.00
2023-05-21T15:47:59.511Z,8.85
2023-05-21T15:50:27.121Z,7.07
2023-05-21T15:52:54.796Z,7.45
2023-05-21T15:55:22.634Z,7.15
2023-05-21T15:57:50.640Z,8.02
2023-05-21T16:00:18.532Z,7.35
2023-05-21T16:02:46.249Z,7.38
2023-05-21T16:05:15.354Z,9.23
2023-05-21T16:07:43.048Z,7.10
2023-05-21T16:10:11.125Z,8.48
2023-05-21T16:12:39.076Z,7.20
2023-05-21T16:15:07.554Z,7.25
2023-05-21T16:17:35.201Z,7.28
2023-05-21T16:20:02.866Z,8.00
2023-05-21T16:22:31.805Z,7.18
2023-05-21T16:24:59.429Z,6.80
2023-05-21T16:27:27.051Z,7.55
2023-05-21T16:29:54.653Z,6.82
2023-05-21T16:32:22.651Z,7.13
2023-05-21T16:34:50.458Z,6.95
2023-05-21T16:37:18.126Z,7.90
2023-05-21T16:39:47.145Z,6.63
2023-05-21T16:42:14.802Z,7.65
2023-05-21T16:44:42.390Z,7.30
2023-05-21T16:47:10.124Z,7.28
2023-05-21T16:49:37.771Z,6.65
2023-05-21T16:52:05.671Z,8.32
2023-05-21T16:54:34.168Z,7.97
2023-05-21T16:57:03.246Z,7.78
2023-05-21T16:59:30.910Z,7.18
2023-05-21T17:01:58.578Z,7.50
2023-05-21T17:04:26.473Z,7.88
2023-05-21T17:06:54.116Z,8.80
2023-05-21T17:09:21.807Z,8.30
2023-05-21T17:11:49.583Z,7.50
2023-05-21T17:14:32.616Z,7.43
2023-05-21T17:17:01.763Z,7.40
2023-05-21T17:19:29.544Z,8.15
2023-05-21T17:21:59.228Z,7.13
2023-05-21T17:24:26.890Z,7.28
2023-05-21T17:26:54.764Z,7.68
2023-05-21T17:29:23.769Z,8.10
2023-05-21T17:31:51.560Z,9.70
2023-05-21T17:34:19.259Z,7.88
2023-05-21T17:36:46.923Z,7.93
2023-05-21T17:39:14.662Z,7.38
2023-05-21T17:41:42.518Z,7.97
2023-05-21T17:44:11.359Z,9.02
2023-05-21T17:46:40.482Z,10.20
2023-05-21T17:49:08.553Z,7.80
2023-05-21T17:51:36.958Z,8.93
2023-05-21T17:54:04.945Z,7.78
2023-05-21T17:56:34.276Z,7.85
2023-05-21T17:59:01.957Z,8.80
2023-05-21T18:01:29.680Z,8.18
2023-05-21T18:03:58.830Z,7.15
2023-05-21T18:06:26.476Z,7.63
2023-05-21T18:08:54.056Z,7.07
2023-05-21T18:11:22.328Z,7.18
2023-05-21T18:13:50.034Z,7.78
2023-05-21T18:16:18.001Z,7.38
2023-05-21T18:18:45.678Z,11.15
2023-05-21T18:21:14.767Z,7.78
2023-05-21T18:23:42.364Z,8.65
2023-05-21T18:26:09.980Z,8.07
2023-05-21T18:28:37.557Z,7.50
2023-05-21T18:31:05.219Z,7.95
2023-05-21T18:33:32.876Z,10.57
2023-05-21T18:36:00.556Z,9.55
2023-05-21T18:38:29.521Z,7.30
2023-05-21T18:40:57.123Z,8.50
2023-05-21T18:43:24.783Z,8.68
2023-05-21T18:45:52.378Z,8.40
2023-05-21T18:48:20.104Z,7.88
2023-05-21T18:50:47.769Z,7.97
2023-05-21T18:53:15.665Z,7.90
2023-05-21T18:55:44.664Z,7.80
2023-05-21T18:58:12.302Z,7.10
2023-05-21T19:00:40.071Z,7.68
2023-05-21T19:03:07.720Z,7.78
2023-05-21T19:05:35.434Z,7.57
2023-05-21T19:08:03.840Z,7.85
2023-05-21T19:10:32.335Z,8.18
2023-05-21T19:13:01.310Z,8.73
2023-05-21T19:15:28.931Z,7.80
2023-05-21T19:17:56.581Z,7.72
2023-05-21T19:20:24.863Z,10.10
2023-05-21T19:22:52.525Z,7.68
2023-05-21T19:25:20.185Z,7.87
2023-05-21T19:27:47.797Z,8.57
2023-05-21T19:30:16.977Z,8.33
2023-05-21T19:32:44.703Z,8.93
2023-05-21T19:35:12.295Z,7.87
2023-05-21T19:37:40.006Z,8.47
2023-05-21T19:40:08.892Z,7.47
2023-05-21T19:42:36.992Z,9.77
2023-05-21T19:45:06.793Z,9.67
2023-05-21T19:47:35.873Z,7.63
2023-05-21T19:50:03.936Z,9.17
2023-05-21T19:52:31.570Z,7.50
2023-05-21T19:55:04.414Z,7.93
2023-05-21T19:57:32.405Z,7.47
2023-05-21T20:00:00.095Z,10.50
2023-05-21T20:02:28.683Z,9.27
2023-05-21T20:04:58.978Z,7.57
2023-05-21T20:07:26.694Z,7.90
2023-05-21T20:09:54.285Z,10.17
2023-05-21T20:12:21.908Z,8.90
2023-05-21T20:14:49.848Z,9.53
2023-05-21T20:17:18.953Z,7.73
2023-05-21T20:19:48.161Z,7.83
2023-05-21T20:22:17.275Z,7.93
2023-05-21T20:24:45.130Z,8.40
2023-05-21T20:27:12.775Z,8.50
2023-05-21T20:29:42.853Z,8.60
2023-05-21T20:32:10.559Z,8.80
2023-05-21T20:34:47.222Z,8.70
2023-05-21T20:37:26.074Z,8.70
2023-05-21T20:39:58.033Z,8.27
2023-05-21T20:42:28.376Z,8.10
2023-05-21T20:44:58.844Z,8.57
2023-05-21T20:47:29.800Z,8.83
2023-05-21T20:49:58.450Z,9.73
2023-05-21T20:52:27.521Z,9.47
2023-05-21T20:54:55.273Z,10.03
2023-05-21T20:57:23.998Z,8.90
2023-05-21T20:59:52.327Z,8.07
2023-05-21T21:02:20.610Z,9.60
2023-05-21T21:04:48.923Z,9.77
2023-05-21T21:07:18.088Z,9.83
2023-05-21T21:09:47.603Z,9.50
2023-05-21T21:12:26.124Z,8.73
2023-05-21T21:14:54.549Z,9.07
2023-05-21T21:17:22.228Z,10.87
2023-05-21T21:19:49.946Z,9.67
2023-05-21T21:22:18.244Z,10.17
2023-05-21T21:24:48.151Z,9.47
2023-05-21T21:27:15.838Z,9.67
2023-05-21T21:29:44.134Z,9.50
2023-05-21T21:32:11.779Z,9.60
2023-05-21T21:34:39.368Z,10.70
2023-05-21T21:37:07.032Z,10.70
2023-05-21T21:39:34.694Z,10.00
2023-05-21T21:42:03.718Z,10.33
2023-05-21T21:44:31.397Z,12.57
2023-05-21T21:46:59.015Z,10.83
2023-05-21T21:49:26.660Z,10.60
2023-05-21T21:51:57.622Z,10.27
2023-05-21T21:54:25.504Z,11.67
2023-05-21T21:56:53.164Z,10.90
2023-05-21T21:59:22.423Z,11.33
2023-05-21T22:01:50.226Z,11.67
2023-05-21T22:04:17.902Z,10.30
2023-05-21T22:06:46.716Z,11.03
2023-05-21T22:09:14.380Z,11.77
2023-05-21T22:11:42.246Z,11.57
2023-05-21T22:14:11.574Z,11.80
2023-05-21T22:16:41.458Z,11.63
2023-05-21T22:19:10.169Z,11.50
2023-05-21T22:21:37.987Z,11.43
2023-05-21T22:24:05.809Z,12.23
2023-05-21T22:26:33.483Z,11.73
2023-05-21T22:29:01.103Z,12.63
2023-05-21T22:31:28.720Z,11.83
2023-05-21T22:33:57.949Z,10.83
2023-05-21T22:36:25.643Z,12.20
2023-05-21T22:38:53.372Z,11.17
2023-05-21T22:41:21.775Z,12.87
2023-05-21T22:43:49.463Z,12.97
2023-05-21T22:46:17.104Z,11.57
2023-05-21T22:48:46.022Z,12.07
2023-05-21T22:51:15.079Z,12.13
2023-05-21T22:53:42.928Z,12.23
2023-05-21T22:56:11.731Z,11.47
2023-05-21T22:58:39.397Z,12.17
2023-05-21T23:01:07.059Z,12.90
2023-05-21T23:03:34.667Z,14.23
2023-05-21T23:06:02.309Z,12.67
2023-05-21T23:08:31.256Z,11.93
2023-05-21T23:10:58.909Z,12.43
2023-05-21T23:13:26.675Z,14.30
2023-05-21T23:15:54.336Z,12.37
2023-05-21T23:18:21.996Z,12.17
2023-05-21T23:20:49.693Z,12.57
2023-05-21T23:23:17.365Z,11.93
2023-05-21T23:25:46.560Z,12.10
2023-05-21T23:28:14.153Z,14.37
2023-05-21T23:30:41.862Z,13.07
2023-05-21T23:33:09.829Z,12.83
2023-05-21T23:35:37.514Z,14.40
2023-05-21T23:38:05.147Z,12.20
2023-05-21T23:40:32.789Z,13.23
2023-05-21T23:43:01.736Z,13.20
2023-05-21T23:45:29.425Z,13.03
2023-05-21T23:47:57.093Z,14.40
2023-05-21T23:50:25.926Z,14.77
2023-05-21T23:52:53.599Z,14.27
2023-05-21T23:55:21.253Z,14.87
2023-05-21T23:57:48.865Z,13.63
